Houston, TX

7:07 PM CDT on July 30, 2016 (GMT -0500)
Galnea Park | | Change Station

Elev 36 ft 29.73 °N, 95.22 °W | Updated 37 seconds ago

Mostly Cloudy
Mostly Cloudy
88.2 °F
Feels Like 101 °F
N
0.0
Wind Variable Wind from SE
Gusts 2.0 mph

Today
High -- | Low -- °F
--% Chance of Precip.
Yesterday
High -- | Low -- °F
Precip. -- in
Pressure 29.96 in
Visibility 10.0 miles
Clouds Few 4500 ft
Scattered Clouds 11000 ft
Mostly Cloudy 25000 ft
Heat Index 101 °F
Dew Point 78 °F
Humidity 71%
Rainfall 0.00 in
Snow Depth Not available.
6:39 AM 8:14 PM
Waning Crescent, 10% visible
METAR KHOU 302353Z COR 16007KT 10SM FEW045 SCT110 BKN250 31/25 A2995 RMK AO2 SLP145 60001 T03110250 10356 20267 58003
Pressure 29.96 in
Visibility 10.0 miles
Clouds Few 4500 ft
Scattered Clouds 11000 ft
Mostly Cloudy 25000 ft
Heat Index 101 °F
Dew Point 78 °F
Humidity 71%
Rainfall 0.00 in
Snow Depth Not available.
6:39 AM 8:14 PM
Waning Crescent, 10% visible
METAR KHOU 302353Z COR 16007KT 10SM FEW045 SCT110 BKN250 31/25 A2995 RMK AO2 SLP145 60001 T03110250 10356 20267 58003

10-Day Weather Forecast

Almanac

Astronomy

Jul. 30, 2016 Rise Set
Actual Time
Civil Twilight
Nautical Twilight
Astronomical Twilight
Moon
Length of Visible Light
Length of Day
Tomorrow will be .
, % of the Moon is Illuminated

Today's Extremes

State Highs State Lows

Community

WunderPhotos

Upload Photos

1,928,682 photos uploaded!

WunderBlog® & News

Nearby

Air Quality

  Air Quality AQ Index Pollutant
Not available.

Snow Depth

Station Depth Elevation

Earthquake Activity

City Distance Mag. Time & Date
Minimum magnitude displayed is 2.5.

Coastal Water Temperatures

Place Temperature

Stations

Nearby Weather Stations

Station Location Temp. Windchill Dew Point Humidity Wind Precip. Elev Updated Type
                   

Watches & Warnings

There are currently no watches in effect.